D/T METAR WX W/DIR W/SPE G/SPE TEMP DEWP
19/01/20 10:20 EGGD 191020Z AUTO 04006KT 9999 NCD 03/01 Q1045 NE (40°) 6.9mph 3°C 1°C
19/01/20 09:20 EGGD 190920Z AUTO 03004KT 9999 NCD 02/01 Q1044 NNE (30°) 4.6mph 2°C 1°C
19/01/20 08:50 EGGD 190850Z AUTO 02005KT 350V060 9999 NCD 02/01 Q1044 NNE (20°) 5.8mph 2°C 1°C
19/01/20 07:50 EGGD 190750Z AUTO VRB03KT 9999 NCD 02/00 Q1043 N (0°) 3.5mph 2°C 0°C
19/01/20 07:20 EGGD 190720Z AUTO 04004KT 010V080 9999 NCD 02/00 Q1042 NE (40°) 4.6mph 2°C 0°C
19/01/20 06:50 EGGD 190650Z AUTO 03007KT 020V080 9999 NCD 02/01 Q1042 NNE (30°) 8.1mph 2°C 1°C
19/01/20 06:20 EGGD 190620Z AUTO 02006KT 9999 NCD 02/01 Q1041 NNE (20°) 6.9mph 2°C 1°C
19/01/20 05:50 EGGD 190550Z AUTO 02006KT 9999 NCD 02/01 Q1041 NNE (20°) 6.9mph 2°C 1°C
19/01/20 05:20 EGGD 190520Z AUTO 03006KT 9999 NCD 02/00 Q1041 NNE (30°) 6.9mph 2°C 0°C
19/01/20 04:50 EGGD 190450Z AUTO 02005KT 9999 NCD 02/00 Q1040 NNE (20°) 5.8mph 2°C 0°C
19/01/20 04:20 EGGD 190420Z AUTO 35007KT 9999 SCT012 02/00 Q1040 N (350°) 8.1mph 2°C 0°C
19/01/20 03:50 EGGD 190350Z AUTO 35006KT 9999 BKN013 02/00 Q1040 N (350°) 6.9mph 2°C 0°C
19/01/20 03:20 EGGD 190320Z AUTO 34006KT 9999 SCT021 BKN027 02/00 Q1040 NNW (340°) 6.9mph 2°C 0°C
19/01/20 02:50 EGGD 190250Z AUTO 33007KT 9999 BKN018 OVC023 03/00 Q1040 NNW (330°) 8.1mph 3°C 0°C
19/01/20 02:20 EGGD 190220Z AUTO 34006KT 9999 OVC016 02/00 Q1039 NNW (340°) 6.9mph 2°C 0°C
19/01/20 01:20 EGGD 190120Z AUTO 31005KT 9999 NCD 01/M01 Q1038 NW (310°) 5.8mph 1°C -1°C
19/01/20 00:50 EGGD 190050Z AUTO 31006KT 9999 NCD 01/M01 Q1038 NW (310°) 6.9mph 1°C -1°C
19/01/20 00:20 EGGD 190020Z AUTO 30004KT 9999 NCD 02/M00 Q1037 WNW (300°) 4.6mph 2°C 0°C
18/01/20 23:50 EGGD 182350Z AUTO 30003KT 9999 NCD 01/M00 Q1037 WNW (300°) 3.5mph 1°C 0°C
18/01/20 22:50 EGGD 182250Z AUTO 31005KT 9999 NCD 02/M00 Q1036 NW (310°) 5.8mph 2°C 0°C
18/01/20 22:20 EGGD 182220Z AUTO 31007KT 9999 NCD 01/M00 Q1035 NW (310°) 8.1mph 1°C 0°C
18/01/20 21:50 EGGD 182150Z AUTO 29006KT 9999 NCD 01/M01 Q1035 WNW (290°) 6.9mph 1°C -1°C
18/01/20 21:20 EGGD 182120Z AUTO 30005KT 9999 NCD 02/M01 Q1035 WNW (300°) 5.8mph 2°C -1°C
18/01/20 20:50 EGGD 182050Z AUTO 31004KT 9999 NCD 03/M00 Q1034 NW (310°) 4.6mph 3°C 0°C
18/01/20 20:20 EGGD 182020Z AUTO 32005KT 9999 NCD 03/M01 Q1034 NW (320°) 5.8mph 3°C -1°C
18/01/20 19:50 EGGD 181950Z AUTO 33004KT 9999 NCD 03/M01 Q1034 NNW (330°) 4.6mph 3°C -1°C
18/01/20 19:20 EGGD 181920Z AUTO 33004KT 9999 NCD 03/M00 Q1033 NNW (330°) 4.6mph 3°C 0°C
18/01/20 18:50 EGGD 181850Z AUTO 32004KT 9999 NCD 03/M00 Q1033 NW (320°) 4.6mph 3°C 0°C
18/01/20 18:20 EGGD 181820Z AUTO 34003KT 9999 NCD 04/M00 Q1032 NNW (340°) 3.5mph 4°C 0°C
18/01/20 17:50 EGGD 181750Z AUTO 01002KT 9999 NCD 04/M00 Q1032 N (10°) 2.3mph 4°C 0°C
18/01/20 17:20 EGGD 181720Z AUTO 02003KT 9999 NCD 04/00 Q1031 NNE (20°) 3.5mph 4°C 0°C
18/01/20 16:50 EGGD 181650Z AUTO 35004KT 9999 NCD 04/00 Q1031 N (350°) 4.6mph 4°C 0°C
18/01/20 15:50 EGGD 181550Z AUTO 01004KT 9999 NCD 05/00 Q1030 N (10°) 4.6mph 5°C 0°C
18/01/20 15:20 EGGD 181520Z AUTO 35007KT 9999 NCD 05/00 Q1030 N (350°) 8.1mph 5°C 0°C
18/01/20 14:50 EGGD 181450Z AUTO 35007KT 9999 NCD 06/01 Q1029 N (350°) 8.1mph 6°C 1°C
18/01/20 14:20 EGGD 181420Z AUTO 33006KT 9999 NCD 06/01 Q1029 NNW (330°) 6.9mph 6°C 1°C
18/01/20 13:50 EGGD 181350Z AUTO 33007KT 290V010 9999 NCD 06/01 Q1029 NNW (330°) 8.1mph 6°C 1°C
18/01/20 13:20 EGGD 181320Z AUTO 30006KT 9999 NCD 06/03 Q1029 WNW (300°) 6.9mph 6°C 3°C
18/01/20 12:50 EGGD 181250Z AUTO 29007KT 9999 NCD 06/03 Q1029 WNW (290°) 8.1mph 6°C 3°C
18/01/20 12:20 EGGD 181220Z AUTO 28006KT 9999 NCD 06/02 Q1028 W (280°) 6.9mph 6°C 2°C
18/01/20 11:50 EGGD 181150Z AUTO 28004KT 260V330 9999 NCD 05/02 Q1028 W (280°) 4.6mph 5°C 2°C
18/01/20 11:20 EGGD 181120Z AUTO 27005KT 9999 NCD 05/02 Q1028 W (270°) 5.8mph 5°C 2°C
18/01/20 10:50 EGGD 181050Z AUTO VRB03KT 9999 NCD 05/02 Q1028 N (0°) 3.5mph 5°C 2°C
18/01/20 10:20 EGGD 181020Z AUTO 28003KT 9999 NCD 04/02 Q1027 W (280°) 3.5mph 4°C 2°C
18/01/20 09:50 EGGD 180950Z AUTO 28003KT 9999 NCD 03/01 Q1027 W (280°) 3.5mph 3°C 1°C
18/01/20 09:20 EGGD 180920Z AUTO 30004KT 9999 NCD 02/00 Q1026 WNW (300°) 4.6mph 2°C 0°C
18/01/20 08:50 EGGD 180850Z AUTO 30004KT 9999 NCD 03/01 Q1026 WNW (300°) 4.6mph 3°C 1°C
18/01/20 08:20 EGGD 180820Z 24003KT 9999 R27/0600 MIFG NSC 01/01 Q1026 MIFG WSW (240°) 3.5mph 1°C 1°C